sensor_id;sensor_type;location;lat;lon;timestamp;pressure;altitude;pressure_sealevel;temperature;humidity
80401;BME280;69727;53.132;8.230;2024-01-15T00:00:50;99634.81;;;22.50;30.86
80401;BME280;69727;53.132;8.230;2024-01-15T00:03:16;99625.03;;;22.49;30.81
80401;BME280;69727;53.132;8.230;2024-01-15T00:05:41;99606.50;;;22.56;30.73
80401;BME280;69727;53.132;8.230;2024-01-15T00:08:07;99618.94;;;22.88;30.66
80401;BME280;69727;53.132;8.230;2024-01-15T00:10:32;99592.75;;;23.29;30.20
80401;BME280;69727;53.132;8.230;2024-01-15T00:12:58;99594.53;;;22.99;30.46
80401;BME280;69727;53.132;8.230;2024-01-15T00:15:23;99598.16;;;22.68;30.76
80401;BME280;69727;53.132;8.230;2024-01-15T00:17:49;99590.38;;;22.75;30.90
80401;BME280;69727;53.132;8.230;2024-01-15T00:20:14;99606.81;;;22.72;31.12
80401;BME280;69727;53.132;8.230;2024-01-15T00:22:41;99588.66;;;22.03;31.82
80401;BME280;69727;53.132;8.230;2024-01-15T00:25:07;99606.09;;;23.20;30.58
80401;BME280;69727;53.132;8.230;2024-01-15T00:27:33;99583.09;;;23.16;29.93
80401;BME280;69727;53.132;8.230;2024-01-15T00:29:58;99622.38;;;22.99;30.61
80401;BME280;69727;53.132;8.230;2024-01-15T00:32:24;99616.88;;;22.70;31.13
80401;BME280;69727;53.132;8.230;2024-01-15T00:34:50;99577.97;;;22.53;31.04
80401;BME280;69727;53.132;8.230;2024-01-15T00:37:16;99613.78;;;23.35;30.60
80401;BME280;69727;53.132;8.230;2024-01-15T00:39:42;99601.28;;;23.34;30.48
80401;BME280;69727;53.132;8.230;2024-01-15T00:42:07;99597.94;;;22.91;30.76
80401;BME280;69727;53.132;8.230;2024-01-15T00:44:33;99613.50;;;22.68;31.50
80401;BME280;69727;53.132;8.230;2024-01-15T00:46:59;99591.34;;;22.64;31.22
80401;BME280;69727;53.132;8.230;2024-01-15T00:49:24;99575.25;;;22.43;31.51
80401;BME280;69727;53.132;8.230;2024-01-15T00:51:51;99589.81;;;22.81;31.26
80401;BME280;69727;53.132;8.230;2024-01-15T00:54:18;99582.63;;;22.92;31.14
80401;BME280;69727;53.132;8.230;2024-01-15T00:56:44;99582.63;;;23.01;31.08
80401;BME280;69727;53.132;8.230;2024-01-15T00:59:09;99568.91;;;23.44;30.59
80401;BME280;69727;53.132;8.230;2024-01-15T01:01:43;99567.91;;;23.35;30.24
80401;BME280;69727;53.132;8.230;2024-01-15T01:04:09;99557.19;;;22.65;31.15
80401;BME280;69727;53.132;8.230;2024-01-15T01:06:35;99573.97;;;22.47;31.63
80401;BME280;69727;53.132;8.230;2024-01-15T01:09:02;99581.09;;;22.58;31.65
80401;BME280;69727;53.132;8.230;2024-01-15T01:11:28;99582.97;;;23.28;30.16
80401;BME280;69727;53.132;8.230;2024-01-15T01:13:54;99559.97;;;22.54;31.43
80401;BME280;69727;53.132;8.230;2024-01-15T01:16:22;99565.03;;;22.88;31.03
80401;BME280;69727;53.132;8.230;2024-01-15T01:19:03;99571.06;;;22.60;31.10
80401;BME280;69727;53.132;8.230;2024-01-15T01:21:28;99534.84;;;23.13;30.28
80401;BME280;69727;53.132;8.230;2024-01-15T01:23:54;99542.50;;;23.18;30.31
80401;BME280;69727;53.132;8.230;2024-01-15T01:26:20;99547.88;;;22.89;31.03
80401;BME280;69727;53.132;8.230;2024-01-15T01:28:48;99557.69;;;23.29;30.36
80401;BME280;69727;53.132;8.230;2024-01-15T01:31:17;99552.09;;;22.31;31.26
80401;BME280;69727;53.132;8.230;2024-01-15T01:33:43;99533.81;;;23.04;30.65
80401;BME280;69727;53.132;8.230;2024-01-15T01:36:09;99520.22;;;23.45;30.37
80401;BME280;69727;53.132;8.230;2024-01-15T01:38:36;99503.88;;;22.28;31.59
80401;BME280;69727;53.132;8.230;2024-01-15T01:41:05;99533.22;;;22.00;32.25
80401;BME280;69727;53.132;8.230;2024-01-15T01:43:31;99536.47;;;22.25;32.02
80401;BME280;69727;53.132;8.230;2024-01-15T01:46:01;99557.06;;;22.96;31.02
80401;BME280;69727;53.132;8.230;2024-01-15T01:48:30;99538.53;;;22.42;31.88
80401;BME280;69727;53.132;8.230;2024-01-15T01:51:03;99513.06;;;22.25;31.87
80401;BME280;69727;53.132;8.230;2024-01-15T01:53:34;99548.59;;;22.19;32.41
80401;BME280;69727;53.132;8.230;2024-01-15T01:56:00;99553.69;;;22.34;32.99
80401;BME280;69727;53.132;8.230;2024-01-15T01:58:28;99549.66;;;22.68;31.94
80401;BME280;69727;53.132;8.230;2024-01-15T02:00:58;99539.13;;;22.15;32.44
80401;BME280;69727;53.132;8.230;2024-01-15T02:03:26;99511.56;;;22.33;32.23
80401;BME280;69727;53.132;8.230;2024-01-15T02:05:52;99528.91;;;22.19;32.68
80401;BME280;69727;53.132;8.230;2024-01-15T02:08:19;99526.63;;;22.14;32.57
80401;BME280;69727;53.132;8.230;2024-01-15T02:10:44;99527.88;;;22.41;32.32
80401;BME280;69727;53.132;8.230;2024-01-15T02:13:12;99517.13;;;23.11;31.45
80401;BME280;69727;53.132;8.230;2024-01-15T02:15:38;99533.00;;;23.14;31.27
80401;BME280;69727;53.132;8.230;2024-01-15T02:18:05;99503.47;;;23.22;30.71
80401;BME280;69727;53.132;8.230;2024-01-15T02:20:32;99528.72;;;22.31;31.74
80401;BME280;69727;53.132;8.230;2024-01-15T02:23:06;99535.09;;;22.81;31.40
80401;BME280;69727;53.132;8.230;2024-01-15T02:25:32;99520.53;;;22.12;32.32
80401;BME280;69727;53.132;8.230;2024-01-15T02:27:58;99526.78;;;22.53;31.30
80401;BME280;69727;53.132;8.230;2024-01-15T02:30:25;99506.38;;;22.50;31.66
80401;BME280;69727;53.132;8.230;2024-01-15T02:32:50;99534.53;;;23.07;30.83
80401;BME280;69727;53.132;8.230;2024-01-15T02:35:16;99522.47;;;23.01;30.59
80401;BME280;69727;53.132;8.230;2024-01-15T02:37:43;99553.22;;;22.79;30.90
80401;BME280;69727;53.132;8.230;2024-01-15T02:40:08;99528.06;;;21.87;32.17
80401;BME280;69727;53.132;8.230;2024-01-15T02:42:34;99580.22;;;22.98;31.20
80401;BME280;69727;53.132;8.230;2024-01-15T02:44:59;99563.34;;;23.06;30.93
80401;BME280;69727;53.132;8.230;2024-01-15T02:47:25;99545.78;;;21.48;33.09
80401;BME280;69727;53.132;8.230;2024-01-15T02:49:50;99574.16;;;22.56;32.22
80401;BME280;69727;53.132;8.230;2024-01-15T02:52:16;99560.78;;;22.44;31.97
80401;BME280;69727;53.132;8.230;2024-01-15T02:54:42;99542.63;;;22.87;31.42
80401;BME280;69727;53.132;8.230;2024-01-15T02:57:07;99561.16;;;22.30;31.63
80401;BME280;69727;53.132;8.230;2024-01-15T02:59:33;99558.81;;;22.37;32.02
80401;BME280;69727;53.132;8.230;2024-01-15T03:01:59;99534.47;;;22.67;30.93
80401;BME280;69727;53.132;8.230;2024-01-15T03:04:24;99544.97;;;22.71;30.97
80401;BME280;69727;53.132;8.230;2024-01-15T03:06:50;99562.31;;;22.97;30.75
80401;BME280;69727;53.132;8.230;2024-01-15T03:09:15;99556.16;;;22.56;31.18
80401;BME280;69727;53.132;8.230;2024-01-15T03:11:41;99569.44;;;22.38;31.41
80401;BME280;69727;53.132;8.230;2024-01-15T03:14:06;99540.19;;;22.94;30.99
80401;BME280;69727;53.132;8.230;2024-01-15T03:16:32;99532.72;;;23.27;30.32
80401;BME280;69727;53.132;8.230;2024-01-15T03:18:59;99531.69;;;22.98;30.62
80401;BME280;69727;53.132;8.230;2024-01-15T03:21:25;99514.41;;;23.11;30.54
80401;BME280;69727;53.132;8.230;2024-01-15T03:23:50;99540.75;;;22.97;30.86
80401;BME280;69727;53.132;8.230;2024-01-15T03:26:16;99552.00;;;21.27;33.16
80401;BME280;69727;53.132;8.230;2024-01-15T03:28:41;99535.47;;;22.26;32.02
80401;BME280;69727;53.132;8.230;2024-01-15T03:31:07;99539.09;;;22.46;31.63
80401;BME280;69727;53.132;8.230;2024-01-15T03:33:33;99518.88;;;22.61;31.58
80401;BME280;69727;53.132;8.230;2024-01-15T03:36:01;99526.88;;;22.92;31.14
80401;BME280;69727;53.132;8.230;2024-01-15T03:38:28;99531.94;;;22.76;31.21
80401;BME280;69727;53.132;8.230;2024-01-15T03:40:54;99529.47;;;23.23;30.67
80401;BME280;69727;53.132;8.230;2024-01-15T03:43:19;99536.41;;;23.26;30.89
80401;BME280;69727;53.132;8.230;2024-01-15T03:45:45;99555.56;;;23.13;31.14
80401;BME280;69727;53.132;8.230;2024-01-15T03:48:11;99506.13;;;22.73;31.62
80401;BME280;69727;53.132;8.230;2024-01-15T03:50:36;99514.69;;;22.98;31.13
80401;BME280;69727;53.132;8.230;2024-01-15T03:53:02;99540.94;;;23.54;30.70
80401;BME280;69727;53.132;8.230;2024-01-15T03:55:28;99516.63;;;23.06;30.59
80401;BME280;69727;53.132;8.230;2024-01-15T03:57:54;99547.13;;;22.77;31.59
80401;BME280;69727;53.132;8.230;2024-01-15T04:00:19;99551.69;;;23.06;31.12
80401;BME280;69727;53.132;8.230;2024-01-15T04:02:44;99547.06;;;23.47;30.64
80401;BME280;69727;53.132;8.230;2024-01-15T04:05:10;99567.47;;;23.59;30.86
80401;BME280;69727;53.132;8.230;2024-01-15T04:07:36;99570.59;;;23.35;30.67
80401;BME280;69727;53.132;8.230;2024-01-15T04:10:02;99587.94;;;23.32;31.14
80401;BME280;69727;53.132;8.230;2024-01-15T04:12:28;99587.22;;;23.50;30.60
80401;BME280;69727;53.132;8.230;2024-01-15T04:14:53;99596.69;;;23.05;31.35
80401;BME280;69727;53.132;8.230;2024-01-15T04:17:19;99598.94;;;22.90;31.58
80401;BME280;69727;53.132;8.230;2024-01-15T04:20:04;99587.84;;;21.91;32.86
80401;BME280;69727;53.132;8.230;2024-01-15T04:22:30;99594.97;;;21.92;32.82
80401;BME280;69727;53.132;8.230;2024-01-15T04:24:56;99579.53;;;21.73;32.92
80401;BME280;69727;53.132;8.230;2024-01-15T04:27:21;99562.84;;;21.37;33.57
80401;BME280;69727;53.132;8.230;2024-01-15T04:29:46;99564.97;;;21.22;33.67
80401;BME280;69727;53.132;8.230;2024-01-15T04:32:12;99566.16;;;21.62;33.49
80401;BME280;69727;53.132;8.230;2024-01-15T04:34:37;99560.44;;;21.55;33.54
80401;BME280;69727;53.132;8.230;2024-01-15T04:37:03;99569.03;;;22.22;32.55
80401;BME280;69727;53.132;8.230;2024-01-15T04:39:34;99558.00;;;22.25;32.34
80401;BME280;69727;53.132;8.230;2024-01-15T04:42:00;99552.84;;;22.43;32.32
80401;BME280;69727;53.132;8.230;2024-01-15T04:44:25;99549.31;;;22.42;32.49
80401;BME280;69727;53.132;8.230;2024-01-15T04:46:51;99551.38;;;21.98;32.78
80401;BME280;69727;53.132;8.230;2024-01-15T04:49:16;99555.78;;;21.99;32.32
80401;BME280;69727;53.132;8.230;2024-01-15T04:51:41;99571.66;;;22.74;31.98
80401;BME280;69727;53.132;8.230;2024-01-15T04:54:07;99569.34;;;22.59;32.00
80401;BME280;69727;53.132;8.230;2024-01-15T04:56:32;99560.22;;;22.41;32.10
80401;BME280;69727;53.132;8.230;2024-01-15T04:58:58;99556.25;;;22.14;32.82
80401;BME280;69727;53.132;8.230;2024-01-15T05:01:23;99550.72;;;21.85;33.33
80401;BME280;69727;53.132;8.230;2024-01-15T05:03:49;99552.50;;;22.67;31.80
80401;BME280;69727;53.132;8.230;2024-01-15T05:06:15;99537.97;;;22.48;32.19
80401;BME280;69727;53.132;8.230;2024-01-15T05:08:40;99539.03;;;22.67;31.65
80401;BME280;69727;53.132;8.230;2024-01-15T05:11:06;99540.00;;;22.25;32.24
80401;BME280;69727;53.132;8.230;2024-01-15T05:13:31;99542.03;;;22.33;32.32
80401;BME280;69727;53.132;8.230;2024-01-15T05:15:57;99550.38;;;22.71;31.63
80401;BME280;69727;53.132;8.230;2024-01-15T05:18:22;99550.22;;;22.72;31.48
80401;BME280;69727;53.132;8.230;2024-01-15T05:20:48;99557.81;;;22.98;31.49
80401;BME280;69727;53.132;8.230;2024-01-15T05:23:13;99543.59;;;22.96;31.48
80401;BME280;69727;53.132;8.230;2024-01-15T05:25:39;99542.94;;;22.43;31.97
80401;BME280;69727;53.132;8.230;2024-01-15T05:28:05;99535.22;;;22.70;31.52
80401;BME280;69727;53.132;8.230;2024-01-15T05:30:30;99546.13;;;22.68;31.90
80401;BME280;69727;53.132;8.230;2024-01-15T05:32:56;99548.91;;;22.57;32.07
80401;BME280;69727;53.132;8.230;2024-01-15T05:35:24;99534.25;;;23.00;31.41
80401;BME280;69727;53.132;8.230;2024-01-15T05:37:49;99528.72;;;22.92;31.26
80401;BME280;69727;53.132;8.230;2024-01-15T05:40:14;99526.25;;;22.69;31.75
80401;BME280;69727;53.132;8.230;2024-01-15T05:42:41;99525.16;;;22.81;31.34
80401;BME280;69727;53.132;8.230;2024-01-15T05:45:12;99529.41;;;22.84;31.73
80401;BME280;69727;53.132;8.230;2024-01-15T05:47:42;99533.91;;;22.54;31.98
80401;BME280;69727;53.132;8.230;2024-01-15T05:50:13;99547.56;;;22.31;32.33
80401;BME280;69727;53.132;8.230;2024-01-15T05:52:38;99549.69;;;22.78;31.67
80401;BME280;69727;53.132;8.230;2024-01-15T05:55:04;99547.59;;;22.41;32.12
80401;BME280;69727;53.132;8.230;2024-01-15T05:57:30;99546.97;;;22.68;31.62
80401;BME280;69727;53.132;8.230;2024-01-15T05:59:56;99531.56;;;23.00;31.21
80401;BME280;69727;53.132;8.230;2024-01-15T06:02:21;99531.56;;;22.40;31.73
80401;BME280;69727;53.132;8.230;2024-01-15T06:04:46;99544.81;;;22.22;32.25
80401;BME280;69727;53.132;8.230;2024-01-15T06:07:12;99548.16;;;22.35;31.96
80401;BME280;69727;53.132;8.230;2024-01-15T06:09:38;99537.72;;;22.21;32.74
80401;BME280;69727;53.132;8.230;2024-01-15T06:12:07;99539.28;;;21.92;32.81
80401;BME280;69727;53.132;8.230;2024-01-15T06:14:33;99522.06;;;22.36;32.04
80401;BME280;69727;53.132;8.230;2024-01-15T06:16:58;99531.91;;;22.25;31.84
80401;BME280;69727;53.132;8.230;2024-01-15T06:19:24;99526.13;;;22.80;31.27
80401;BME280;69727;53.132;8.230;2024-01-15T06:21:49;99521.47;;;22.92;30.88
80401;BME280;69727;53.132;8.230;2024-01-15T06:24:15;99528.03;;;23.09;30.57
80401;BME280;69727;53.132;8.230;2024-01-15T06:26:58;99505.00;;;23.05;30.73
80401;BME280;69727;53.132;8.230;2024-01-15T06:29:53;99529.91;;;22.58;31.42
80401;BME280;69727;53.132;8.230;2024-01-15T06:32:47;99526.72;;;23.03;30.93
80401;BME280;69727;53.132;8.230;2024-01-15T06:35:21;99519.09;;;23.09;30.48
80401;BME280;69727;53.132;8.230;2024-01-15T06:38:02;99520.63;;;23.01;30.56
80401;BME280;69727;53.132;8.230;2024-01-15T06:40:28;99525.59;;;22.96;30.85
80401;BME280;69727;53.132;8.230;2024-01-15T06:42:53;99530.31;;;23.14;30.95
80401;BME280;69727;53.132;8.230;2024-01-15T06:45:19;99534.66;;;23.05;30.83
80401;BME280;69727;53.132;8.230;2024-01-15T06:47:45;99540.06;;;23.05;31.24
80401;BME280;69727;53.132;8.230;2024-01-15T06:50:23;99549.19;;;23.24;30.47
80401;BME280;69727;53.132;8.230;2024-01-15T06:52:49;99552.88;;;23.32;31.03
80401;BME280;69727;53.132;8.230;2024-01-15T06:55:14;99530.00;;;23.36;30.87
80401;BME280;69727;53.132;8.230;2024-01-15T06:57:39;99554.69;;;23.42;30.55
80401;BME280;69727;53.132;8.230;2024-01-15T07:00:05;99554.66;;;22.93;31.02
80401;BME280;69727;53.132;8.230;2024-01-15T07:02:39;99548.44;;;22.92;30.78
80401;BME280;69727;53.132;8.230;2024-01-15T07:05:05;99556.84;;;22.58;31.48
80401;BME280;69727;53.132;8.230;2024-01-15T07:07:31;99549.69;;;22.88;31.06
80401;BME280;69727;53.132;8.230;2024-01-15T07:09:56;99550.59;;;23.18;30.75
80401;BME280;69727;53.132;8.230;2024-01-15T07:12:22;99541.22;;;23.02;30.98
80401;BME280;69727;53.132;8.230;2024-01-15T07:14:47;99545.59;;;23.03;31.28
80401;BME280;69727;53.132;8.230;2024-01-15T07:17:13;99550.31;;;23.11;30.65
80401;BME280;69727;53.132;8.230;2024-01-15T07:19:38;99542.22;;;23.11;30.99
80401;BME280;69727;53.132;8.230;2024-01-15T07:22:04;99553.41;;;22.87;30.97
80401;BME280;69727;53.132;8.230;2024-01-15T07:24:29;99560.38;;;22.18;31.28
80401;BME280;69727;53.132;8.230;2024-01-15T07:26:55;99570.25;;;22.70;31.16
80401;BME280;69727;53.132;8.230;2024-01-15T07:29:20;99564.88;;;22.99;30.76
80401;BME280;69727;53.132;8.230;2024-01-15T07:31:51;99567.34;;;22.52;31.28
80401;BME280;69727;53.132;8.230;2024-01-15T07:34:17;99576.31;;;22.62;30.81
80401;BME280;69727;53.132;8.230;2024-01-15T07:36:45;99562.47;;;22.86;30.83
80401;BME280;69727;53.132;8.230;2024-01-15T07:39:11;99570.44;;;22.47;30.90
80401;BME280;69727;53.132;8.230;2024-01-15T07:41:37;99572.34;;;22.76;30.66
80401;BME280;69727;53.132;8.230;2024-01-15T07:44:02;99575.72;;;22.58;31.01
80401;BME280;69727;53.132;8.230;2024-01-15T07:46:28;99579.59;;;22.35;31.33
80401;BME280;69727;53.132;8.230;2024-01-15T07:48:54;99588.84;;;22.32;31.58
80401;BME280;69727;53.132;8.230;2024-01-15T07:51:25;99595.50;;;22.78;30.93
80401;BME280;69727;53.132;8.230;2024-01-15T07:54:09;99588.97;;;22.30;31.69
80401;BME280;69727;53.132;8.230;2024-01-15T07:56:38;99572.84;;;22.19;31.46
80401;BME280;69727;53.132;8.230;2024-01-15T07:59:17;99581.38;;;22.55;31.19
80401;BME280;69727;53.132;8.230;2024-01-15T08:01:43;99578.06;;;21.48;32.57
80401;BME280;69727;53.132;8.230;2024-01-15T08:04:11;99580.16;;;22.07;31.74
80401;BME280;69727;53.132;8.230;2024-01-15T08:06:38;99578.16;;;21.57;32.32
80401;BME280;69727;53.132;8.230;2024-01-15T08:09:03;99578.09;;;22.21;31.56
80401;BME280;69727;53.132;8.230;2024-01-15T08:11:29;99574.56;;;22.20;31.43
80401;BME280;69727;53.132;8.230;2024-01-15T08:14:11;99581.97;;;22.59;30.78
80401;BME280;69727;53.132;8.230;2024-01-15T08:16:37;99577.56;;;22.27;31.36
80401;BME280;69727;53.132;8.230;2024-01-15T08:19:03;99584.59;;;21.87;32.17
80401;BME280;69727;53.132;8.230;2024-01-15T08:21:28;99590.88;;;22.28;31.45
80401;BME280;69727;53.132;8.230;2024-01-15T08:23:56;99596.16;;;21.57;32.31
80401;BME280;69727;53.132;8.230;2024-01-15T08:26:22;99589.41;;;22.14;31.83
80401;BME280;69727;53.132;8.230;2024-01-15T08:28:48;99587.34;;;21.11;33.16
80401;BME280;69727;53.132;8.230;2024-01-15T08:31:13;99586.66;;;22.26;32.03
80401;BME280;69727;53.132;8.230;2024-01-15T08:33:39;99584.41;;;22.31;31.68
80401;BME280;69727;53.132;8.230;2024-01-15T08:36:04;99587.63;;;22.25;32.08
80401;BME280;69727;53.132;8.230;2024-01-15T08:38:30;99582.16;;;22.86;31.09
80401;BME280;69727;53.132;8.230;2024-01-15T08:40:55;99581.09;;;21.96;32.47
80401;BME280;69727;53.132;8.230;2024-01-15T08:43:26;99580.47;;;22.14;32.10
80401;BME280;69727;53.132;8.230;2024-01-15T08:45:51;99587.59;;;21.94;32.36
80401;BME280;69727;53.132;8.230;2024-01-15T08:48:21;99581.00;;;22.29;31.71
80401;BME280;69727;53.132;8.230;2024-01-15T08:50:46;99588.03;;;22.20;31.79
80401;BME280;69727;53.132;8.230;2024-01-15T08:53:12;99571.28;;;22.17;31.97
80401;BME280;69727;53.132;8.230;2024-01-15T08:55:40;99578.84;;;22.02;32.55
80401;BME280;69727;53.132;8.230;2024-01-15T08:58:07;99577.41;;;21.02;33.85
80401;BME280;69727;53.132;8.230;2024-01-15T09:00:34;99578.63;;;21.30;33.30
80401;BME280;69727;53.132;8.230;2024-01-15T09:02:59;99573.88;;;21.55;33.16
80401;BME280;69727;53.132;8.230;2024-01-15T09:05:25;99582.97;;;20.66;34.19
80401;BME280;69727;53.132;8.230;2024-01-15T09:07:54;99580.63;;;20.62;35.03
80401;BME280;69727;53.132;8.230;2024-01-15T09:10:20;99598.84;;;21.13;33.81
80401;BME280;69727;53.132;8.230;2024-01-15T09:12:45;99599.91;;;20.78;34.58
80401;BME280;69727;53.132;8.230;2024-01-15T09:15:11;99596.94;;;21.90;32.77
80401;BME280;69727;53.132;8.230;2024-01-15T09:17:37;99590.91;;;21.12;33.68
80401;BME280;69727;53.132;8.230;2024-01-15T09:20:03;99587.41;;;21.32;33.64
80401;BME280;69727;53.132;8.230;2024-01-15T09:22:31;99591.50;;;20.15;34.95
80401;BME280;69727;53.132;8.230;2024-01-15T09:24:56;99592.78;;;21.86;32.44
80401;BME280;69727;53.132;8.230;2024-01-15T09:27:22;99584.72;;;21.86;32.34
80401;BME280;69727;53.132;8.230;2024-01-15T09:29:47;99578.41;;;21.75;32.14
80401;BME280;69727;53.132;8.230;2024-01-15T09:32:13;99579.53;;;21.73;32.52
80401;BME280;69727;53.132;8.230;2024-01-15T09:34:38;99582.47;;;21.91;32.16
80401;BME280;69727;53.132;8.230;2024-01-15T09:37:04;99584.50;;;22.20;32.05
80401;BME280;69727;53.132;8.230;2024-01-15T09:39:30;99591.84;;;21.75;32.03
80401;BME280;69727;53.132;8.230;2024-01-15T09:41:57;99600.13;;;20.98;33.15
80401;BME280;69727;53.132;8.230;2024-01-15T09:44:23;99589.66;;;21.81;32.17
80401;BME280;69727;53.132;8.230;2024-01-15T09:46:49;99591.47;;;22.01;32.00
80401;BME280;69727;53.132;8.230;2024-01-15T09:49:18;99600.56;;;22.62;31.02
80401;BME280;69727;53.132;8.230;2024-01-15T09:51:44;99607.91;;;22.60;31.15
80401;BME280;69727;53.132;8.230;2024-01-15T09:54:10;99612.47;;;22.59;31.39
80401;BME280;69727;53.132;8.230;2024-01-15T09:56:35;99615.66;;;22.43;31.73
80401;BME280;69727;53.132;8.230;2024-01-15T10:01:49;99610.81;;;22.37;31.80
80401;BME280;69727;53.132;8.230;2024-01-15T10:04:15;99616.81;;;21.99;31.99
80401;BME280;69727;53.132;8.230;2024-01-15T10:06:45;99613.44;;;22.06;31.98
80401;BME280;69727;53.132;8.230;2024-01-15T10:09:12;99620.91;;;22.24;31.78
80401;BME280;69727;53.132;8.230;2024-01-15T10:11:41;99614.78;;;22.43;31.40
80401;BME280;69727;53.132;8.230;2024-01-15T10:14:09;99615.03;;;22.71;31.21
80401;BME280;69727;53.132;8.230;2024-01-15T10:16:40;99611.25;;;22.42;31.19
80401;BME280;69727;53.132;8.230;2024-01-15T10:19:18;99618.59;;;22.30;31.54
80401;BME280;69727;53.132;8.230;2024-01-15T10:21:50;99606.84;;;22.41;31.91
80401;BME280;69727;53.132;8.230;2024-01-15T10:24:22;99601.91;;;21.52;32.50
80401;BME280;69727;53.132;8.230;2024-01-15T10:26:47;99606.03;;;22.20;32.03
80401;BME280;69727;53.132;8.230;2024-01-15T10:29:14;99608.94;;;22.68;31.76
80401;BME280;69727;53.132;8.230;2024-01-15T10:31:43;99611.09;;;22.75;31.53
80401;BME280;69727;53.132;8.230;2024-01-15T10:34:15;99602.47;;;22.81;31.61
80401;BME280;69727;53.132;8.230;2024-01-15T10:36:41;99604.84;;;22.34;31.80
80401;BME280;69727;53.132;8.230;2024-01-15T10:39:10;99598.44;;;22.04;31.92
80401;BME280;69727;53.132;8.230;2024-01-15T10:41:37;99601.84;;;22.06;32.43
80401;BME280;69727;53.132;8.230;2024-01-15T10:44:03;99590.13;;;22.17;32.06
80401;BME280;69727;53.132;8.230;2024-01-15T10:53:08;99589.25;;;21.64;32.70
80401;BME280;69727;53.132;8.230;2024-01-15T10:55:49;99580.63;;;22.84;32.93
80401;BME280;69727;53.132;8.230;2024-01-15T10:59:30;99589.41;;;22.36;32.00
80401;BME280;69727;53.132;8.230;2024-01-15T11:05:26;99578.72;;;22.03;32.32
80401;BME280;69727;53.132;8.230;2024-01-15T11:11:23;99588.44;;;22.87;31.46
80401;BME280;69727;53.132;8.230;2024-01-15T11:14:04;99587.09;;;22.62;31.59
80401;BME280;69727;53.132;8.230;2024-01-15T11:17:00;99570.81;;;22.73;31.43
80401;BME280;69727;53.132;8.230;2024-01-15T11:19:53;99585.13;;;22.74;31.97
80401;BME280;69727;53.132;8.230;2024-01-15T11:33:01;99571.25;;;22.38;31.97
80401;BME280;69727;53.132;8.230;2024-01-15T11:35:49;99584.13;;;22.65;31.39
80401;BME280;69727;53.132;8.230;2024-01-15T11:38:28;99581.34;;;22.45;31.53
80401;BME280;69727;53.132;8.230;2024-01-15T11:40:54;99580.78;;;22.42;31.30
80401;BME280;69727;53.132;8.230;2024-01-15T11:43:50;99586.50;;;22.58;31.28
80401;BME280;69727;53.132;8.230;2024-01-15T11:46:17;99581.91;;;22.39;31.50
80401;BME280;69727;53.132;8.230;2024-01-15T11:48:44;99591.88;;;22.58;30.97
80401;BME280;69727;53.132;8.230;2024-01-15T11:51:11;99585.97;;;22.74;31.04
80401;BME280;69727;53.132;8.230;2024-01-15T11:53:57;99587.56;;;22.86;31.07
80401;BME280;69727;53.132;8.230;2024-01-15T11:56:29;99585.63;;;22.48;31.46
80401;BME280;69727;53.132;8.230;2024-01-15T11:58:55;99587.19;;;22.20;31.64
80401;BME280;69727;53.132;8.230;2024-01-15T12:01:21;99587.75;;;22.23;31.98
80401;BME280;69727;53.132;8.230;2024-01-15T12:03:47;99577.56;;;22.27;32.20
80401;BME280;69727;53.132;8.230;2024-01-15T12:06:12;99576.88;;;22.56;31.78
80401;BME280;69727;53.132;8.230;2024-01-15T12:08:51;99580.16;;;22.79;31.73
80401;BME280;69727;53.132;8.230;2024-01-15T12:11:31;99567.69;;;22.06;32.35
80401;BME280;69727;53.132;8.230;2024-01-15T12:14:18;99565.09;;;22.26;32.38
80401;BME280;69727;53.132;8.230;2024-01-15T12:27:02;99581.09;;;22.48;32.50
80401;BME280;69727;53.132;8.230;2024-01-15T12:29:37;99582.38;;;22.54;32.28
80401;BME280;69727;53.132;8.230;2024-01-15T12:32:12;99575.25;;;22.43;32.62
80401;BME280;69727;53.132;8.230;2024-01-15T12:34:51;99574.25;;;21.92;32.86
80401;BME280;69727;53.132;8.230;2024-01-15T12:37:48;99583.56;;;22.30;32.79
80401;BME280;69727;53.132;8.230;2024-01-15T12:40:33;99584.41;;;22.31;32.90
80401;BME280;69727;53.132;8.230;2024-01-15T12:43:00;99578.22;;;22.19;32.74
80401;BME280;69727;53.132;8.230;2024-01-15T12:45:28;99575.41;;;22.42;32.52
80401;BME280;69727;53.132;8.230;2024-01-15T12:48:09;99578.41;;;23.38;32.09
80401;BME280;69727;53.132;8.230;2024-01-15T12:50:34;99580.69;;;23.43;31.92
80401;BME280;69727;53.132;8.230;2024-01-15T12:53:01;99591.06;;;23.28;31.93
80401;BME280;69727;53.132;8.230;2024-01-15T12:55:27;99587.19;;;23.01;31.58
80401;BME280;69727;53.132;8.230;2024-01-15T12:58:00;99581.94;;;22.99;31.57
80401;BME280;69727;53.132;8.230;2024-01-15T13:00:25;99587.75;;;23.04;31.50
80401;BME280;69727;53.132;8.230;2024-01-15T13:02:51;99604.00;;;22.74;31.79
80401;BME280;69727;53.132;8.230;2024-01-15T13:05:20;99590.06;;;23.48;31.34
80401;BME280;69727;53.132;8.230;2024-01-15T13:07:50;99599.97;;;23.87;30.45
80401;BME280;69727;53.132;8.230;2024-01-15T13:10:20;99598.00;;;23.60;31.36
80401;BME280;69727;53.132;8.230;2024-01-15T13:13:03;99597.81;;;24.10;31.00
80401;BME280;69727;53.132;8.230;2024-01-15T13:15:38;99589.78;;;23.61;31.12
80401;BME280;69727;53.132;8.230;2024-01-15T13:18:09;99600.28;;;23.54;31.28
80401;BME280;69727;53.132;8.230;2024-01-15T13:21:22;99617.72;;;23.11;32.08
80401;BME280;69727;53.132;8.230;2024-01-15T13:23:48;99614.66;;;22.85;31.89
80401;BME280;69727;53.132;8.230;2024-01-15T13:26:48;99616.75;;;23.12;31.47
80401;BME280;69727;53.132;8.230;2024-01-15T13:29:56;99626.88;;;22.89;31.43
80401;BME280;69727;53.132;8.230;2024-01-15T13:32:25;99624.47;;;22.55;32.49
80401;BME280;69727;53.132;8.230;2024-01-15T13:34:55;99628.41;;;22.82;31.99
80401;BME280;69727;53.132;8.230;2024-01-15T13:37:20;99628.25;;;22.74;31.62
80401;BME280;69727;53.132;8.230;2024-01-15T13:39:46;99636.56;;;23.01;31.53
80401;BME280;69727;53.132;8.230;2024-01-15T13:42:11;99637.78;;;22.88;31.48
80401;BME280;69727;53.132;8.230;2024-01-15T13:44:40;99634.06;;;22.79;31.47